Pos First Name Last Name YOB Country Start
Num
Time Swim T1 Bike T2 Run
1 Ren Sato 1995 JPN 3 00:54:34 00:09:45 00:00:45 00:27:14 00:00:32 00:16:18
2 Koki Yamamoto 1996 JPN 7 00:54:43 00:09:44 00:00:45 00:27:17 00:00:29 00:16:28
3 Aoba Yasumatsu 1997 JPN 11 00:54:48 00:10:04 00:00:46 00:27:57 00:00:31 00:15:30
4 Yuki Abe 1993 JPN 5 00:54:55 00:09:47 00:00:47 00:27:12 00:00:31 00:16:38
5 Ryousuke Maeda 1995 JPN 4 00:55:02 00:09:39 00:00:49 00:27:17 00:00:32 00:16:45
6 Mitsuho Mochizuki 2000 JPN 17 00:55:10 00:09:34 00:00:45 00:27:27 00:00:28 00:16:56
7 Joshua Ferris 2001 AUS 30 00:55:15 00:10:04 00:00:47 00:27:56 00:00:27 00:16:01
8 Hokuto Obara 1998 JPN 20 00:55:28 00:09:46 00:00:46 00:27:15 00:00:34 00:17:07
9 Charlie Quin 1995 AUS 16 00:55:43 00:09:42 00:00:45 00:27:19 00:00:35 00:17:22
10 Trent Dodds 1999 NZL 6 00:56:05 00:10:01 00:00:45 00:27:59 00:00:31 00:16:49
11 Tuan Chun Chang 1994 TPE 8 00:56:08 00:10:03 00:00:46 00:28:00 00:00:37 00:16:42
12 Shogo Ishitsuka 1989 JPN 1 00:56:13 00:09:45 00:00:46 00:28:18 00:00:34 00:16:50
13 Takaya Sukizaki 1994 JPN 15 00:56:15 00:10:04 00:00:48 00:27:58 00:00:34 00:16:51
14 Takanori Sugihara 1994 JPN 14 00:56:22 00:09:53 00:00:46 00:28:11 00:00:35 00:16:57
15 Kenta Asakai 1994 JPN 38 00:56:28 00:10:04 00:00:46 00:27:58 00:00:36 00:17:04
16 Gyuseo Choi 1994 KOR 24 00:56:30 00:10:05 00:00:50 00:27:54 00:00:36 00:17:05
17 Joe Begbie 2001 AUS 36 00:56:34 00:10:06 00:00:47 00:27:56 00:00:30 00:17:15
18 Taishi Furuyama 1995 JPN 10 00:56:38 00:10:01 00:00:45 00:28:01 00:00:36 00:17:15
19 Noritake Nagasho 1999 JPN 21 00:56:44 00:10:06 00:00:51 00:27:55 00:00:33 00:17:19
20 Woo Sik Jeong 1998 KOR 22 00:56:52 00:09:53 00:00:47 00:28:11 00:00:40 00:17:21
21 Lachlan Jones 2000 AUS 28 00:57:09 00:10:06 00:00:44 00:27:57 00:00:25 00:17:57
22 Kotaro Watanabe 1994 JPN 12 00:57:24 00:09:59 00:00:46 00:28:04 00:00:37 00:17:58
23 Ryotaro Otani 1990 JPN 9 00:57:39 00:10:09 00:00:49 00:29:25 00:00:36 00:16:40
24 Ryo Sueoka 1990 JPN 29 00:57:59 00:10:42 00:00:46 00:29:38 00:00:32 00:16:21
25 Ryosuke Yamamoto 1979 JPN 31 00:58:08 00:10:10 00:00:50 00:29:20 00:00:30 00:17:18
26 Syoma Akino 1999 JPN 33 00:58:16 00:10:11 00:00:48 00:29:22 00:00:33 00:17:22
27 Kirimaru Masuda 1996 JPN 42 00:58:27 00:10:56 00:00:49 00:29:21 00:00:32 00:16:49
28 Kentaro Sato 1991 JPN 27 00:58:44 00:10:33 00:00:46 00:29:46 00:00:38 00:17:01
29 Joji Nitta 1994 JPN 18 00:58:53 00:10:03 00:00:54 00:29:27 00:00:33 00:17:56
30 Reo Ishizeki 1998 JPN 32 00:59:09 00:10:09 00:00:51 00:29:21 00:00:35 00:18:13
31 Yosuke Yamashita 1993 JPN 25 00:59:15 00:09:59 00:00:46 00:29:12 00:00:35 00:18:43
32 Masatoshi Takahashi 1992 JPN 43 00:59:16 00:10:40 00:00:49 00:29:38 00:00:30 00:17:39
33 Yuuki Oketani 1988 JPN 23 00:59:31 00:10:07 00:00:48 00:29:25 00:00:37 00:18:34
34 Touki Maeda 1999 JPN 37 00:59:44 00:10:42 00:00:47 00:29:37 00:00:34 00:18:04
35 Hisanobu Kondo 2001 JPN 41 01:00:41 00:10:43 00:00:47 00:29:37 00:00:30 00:19:04
36 Fumiya Tanaka 1991 JPN 26 01:01:20 00:10:53 00:00:51 00:31:14 00:00:32 00:17:50
37 Toshiki Sakakibara 1994 JPN 40 01:03:55 00:09:50 00:00:49 00:29:44 00:00:32 00:23:00
LAP Shunya Maeda 1988 JPN 34 LAP 00:11:10 00:00:47 00:00:00 00:00:00 00:00:00
LAP Yuya Shimizu 1998 JPN 39 LAP 00:10:40 00:00:53 00:00:00 00:00:00 00:00:00
DNF Yuichi Hosoda 1984 JPN 2 DNF 00:09:44 00:00:45 00:27:18 00:00:32 00:00:00
DNF Ji Hong Lee 1992 KOR 19 DNF 00:10:00 00:00:47 00:00:00 00:00:00 00:00:00
DNF Kenta Yanai 1986 JPN 35 DNF 00:10:08 00:00:50 00:32:32 00:00:50 00:00:00
Program notes:

Technical Delegate: Sze Yuen Mo/HKG. Head Referee: Tsuyoshi Kakuta/JPN. Competition Jury: Sze Yuen Mo/HKG, Kiriyo Suzuki/JPN, Hiroshi Okamura/JPN.
Distances: Swim 750 m (1 lap), Swim 20 km (4 laps), Run 5 km (2 laps)
Water temperature 21.9°. Air temperature 24.6°. WBGT 27.0°. Humidity 83%. Wetsuits not allowed.